Weather observations for the past three days for
Fort Smith Regional Airport
Metric (Imperial)
Date Time (cdt) Wind (kph) Vis. (km) Weather Sky Cond. Temperature (ºC) Relative Humidity Wind Chill (°C) Heat Index (°C) Pressure Precipitation (cm)
Air Dwpt 6 hour altimeter (cm) sea level (mb) 1 hr 3 hr 6 hr
Max. Min.
03 21:53 S 7 16.09 Fair CLR 31.7 18.9 47% 33 75.97 1012.0
03 20:53 S 7 16.09 Fair CLR 32.8 18.9 44% 34 75.92 1011.4
03 19:53 S 9 16.09 Fair CLR 34.4 18.9 40% 36 75.87 1010.8
03 18:53 SE 19 G 31 16.09 Fair CLR 36.7 18.3 38.9 35.6 34% 38 75.84 1010.5
03 17:53 S 17 16.09 Fair CLR 37.8 18.9 33% 40 75.82 1010.2
03 16:53 SE 11 G 26 16.09 Fair CLR 37.2 18.9 34% 39 75.84 1010.5
03 15:53 S 19 16.09 Fair CLR 38.3 19.4 33% 41 75.9 1011.0
03 14:53 SE 19 16.09 Mostly Cloudy BKN070 37.8 19.4 34% 41 75.95 1011.6
03 13:53 Vrbl 9 G 30 16.09 Partly Cloudy SCT065 36.7 19.4 36% 39 76 1012.5
03 12:53 S 19 G 33 16.09 Fair CLR 35.6 19.4 36.7 25.6 39% 38 76.07 1013.4
03 11:53 S 15 16.09 A Few Clouds FEW049 34.4 20.6 44% 37 76.12 1014.2
03 10:53 Vrbl 7 16.09 Fair CLR 32.8 21.7 52% 36 76.15 1014.5
03 09:53 Calm 16.09 Fair CLR 31.1 21.7 57% 34 76.17 1014.8
03 08:53 SE 7 16.09 Fair CLR 29.4 22.2 65% 33 76.2 1015.3
03 07:53 SE 9 16.09 Fair CLR 26.7 21.7 74% 29 76.2 1015.3
03 06:53 Calm 16.09 Fair CLR 25.6 21.1 28.9 25.6 76% 27 76.17 1014.9
03 05:53 Calm 16.09 Fair CLR 26.1 21.7 77% 28 76.15 1014.4
03 04:53 E 6 16.09 Fair CLR 26.1 21.7 77% 28 76.12 1014.0
03 03:53 Calm 16.09 Fair CLR 27.2 21.1 69% 29 76.1 1013.9
03 02:53 NE 6 16.09 Fair CLR 27.2 21.7 72% 29 76.1 1013.6
03 01:53 E 6 16.09 Fair CLR 27.8 20.6 65% 30 76.1 1013.6
03 00:53 Calm 16.09 Fair CLR 28.3 19.4 37.8 27.2 59% 30 76.07 1013.6
02 23:53 Calm 16.09 Fair CLR 30.6 19.4 51% 32 76.07 1013.4
02 22:53 SE 7 16.09 Fair CLR 31.7 18.3 45% 33 76.05 1013.2
02 21:53 SE 9 16.09 Fair CLR 33.3 18.3 41% 34 76.05 1013.1
02 20:53 SE 9 16.09 Fair CLR 34.4 17.8 37% 35 75.97 1012.3
02 19:53 SE 9 16.09 Fair CLR 36.1 17.2 33% 37 75.92 1011.5
02 18:53 SE 11 16.09 A Few Clouds FEW090 37.8 17.2 40 36.7 30% 39 75.9 1011.2
02 17:53 E 22 G 33 16.09 Fair CLR 38.9 17.2 28% 40 75.9 1011.1
02 16:53 E 17 16.09 Mostly Cloudy SCT100 BKN120 38.9 17.8 29% 41 75.92 1011.6
02 15:53 E 19 G 30 16.09 Partly Cloudy SCT085 40 17.8 27% 42 75.97 1012.0
02 14:53 S 17 16.09 Fair CLR 38.9 17.8 29% 41 76.02 1012.9
02 13:53 SE 7 16.09 Partly Cloudy FEW070 SCT110 36.7 18.3 34% 38 76.1 1014.0
02 12:53 E 11 16.09 A Few Clouds FEW065 37.2 19.4 37.2 23.9 35% 40 76.2 1015.0
02 11:53 Calm 16.09 Fair CLR 36.1 20 39% 39 76.25 1015.9
02 10:53 Vrbl 9 16.09 Fair CLR 35 21.1 44% 39 76.3 1016.5
02 09:53 NE 9 16.09 Fair CLR 32.8 21.7 52% 36 76.3 1016.6
02 08:53 Calm 16.09 Fair CLR 29.4 21.7 63% 32 76.33 1016.7
02 07:53 NE 9 16.09 Fair CLR 26.7 22.2 76% 29 76.33 1016.7
02 06:53 NE 6 16.09 Fair CLR 23.9 21.7 28.9 23.9 88% 24 76.28 1016.0
02 05:53 Calm 16.09 Fair CLR 25 21.7 82% 26 76.25 1015.8
02 04:53 NE 7 16.09 Fair CLR 26.1 22.2 79% 28 76.23 1015.5
02 03:53 NE 6 16.09 Fair CLR 27.2 21.7 72% 29 76.2 1015.3
02 02:53 Calm 16.09 Fair CLR 28.3 21.1 65% 31 76.2 1015.3
02 01:53 NE 9 16.09 Fair CLR 27.8 20.6 65% 30 76.2 1015.3
02 00:53 NE 6 16.09 Partly Cloudy SCT090 28.3 20.6 38.3 27.8 63% 30 76.2 1015.2
01 23:53 Calm 16.09 Fair CLR 30 18.9 51% 31 76.17 1014.8
01 22:53 E 7 16.09 Fair CLR 30.6 18.9 50% 32 76.15 1014.5
01 21:53 SE 11 16.09 Fair CLR 33.9 17.8 38% 35 76.1 1013.7
01 20:53 SE 11 16.09 A Few Clouds FEW110 35 17.8 36% 36 76.02 1012.9
01 19:53 E 9 16.09 Mostly Cloudy BKN090 35 18.9 39% 37 75.97 1012.2
01 18:53 SE 9 16.09 Fair CLR 38.3 16.7 40.6 36.7 28% 39 76 1012.4
01 17:53 SE 13 16.09 Mostly Cloudy BKN090 BKN110 38.9 17.2 28% 40 76.02 1012.6
01 16:53 E 17 16.09 Mostly Cloudy SCT100 BKN120 40 16.7 25% 41 76.02 1012.7
01 15:53 N 9 16.09 Fair CLR 38.9 17.2 28% 40 76.05 1013.1
01 14:53 Vrbl 9 16.09 Overcast OVC085 39.4 18.3 29% 42 76.1 1013.9
01 13:53 NW 9 16.09 Mostly Cloudy SCT080 BKN100 37.2 18.9 34% 39 76.17 1014.8
01 12:53 E 15 16.09 Fair CLR 37.8 18.9 37.8 25 33% 40 76.25 1015.8
01 11:53 NW 11 16.09 Fair CLR 36.1 19.4 37% 38 76.33 1016.9
01 10:53 Calm 16.09 Fair CLR 35 20.6 43% 38 76.38 1017.4
01 09:53 Calm 16.09 Fair CLR 32.2 21.1 52% 35 76.38 1017.6
01 08:53 NE 7 16.09 Fair CLR 28.9 21.7 65% 32 76.4 1017.7
01 07:53 E 6 16.09 Fair CLR 26.1 21.7 77% 28 76.38 1017.4
01 06:53 NE 7 16.09 Fair CLR 25 21.1 28.3 24.4 79% 26 76.33 1016.8
01 05:53 NE 6 16.09 A Few Clouds FEW100 25.6 21.1 76% 27 76.3 1016.6
01 04:53 E 6 16.09 Fair CLR 26.1 20.6 72% 28 76.28 1016.2
01 03:53 NE 7 16.09 Fair CLR 26.7 20 67% 28 76.25 1016.0
01 02:53 N 6 16.09 A Few Clouds FEW095 27.8 20 63% 29 76.25 1015.9
01 01:53 E 9 16.09 Fair CLR 27.2 19.4 62% 29 76.25 1015.7
01 00:53 NE 11 16.09 A Few Clouds FEW085 27.8 18.9 37.2 27.2 58% 29 76.23 1015.4
31 23:53 NE 7 16.09 Fair CLR 28.9 19.4 57% 30 76.2 1015.1
31 22:53 E 6 16.09 Fair CLR 31.1 17.8 45% 32 76.17 1014.8
Date Time (cdt) Wind (kph) Vis. (km) Weather Sky Cond. Air Dwpt Max. Min. Relative Humidity Wind Chill (°C) Heat Index (°C) altimeter (cm) sea level (mb) 1 hr 3 hr 6 hr
6 hour
Temperature (ºC) Pressure Precipitation (cm)